sensor_id;sensor_type;location;lat;lon;timestamp;P1;durP1;ratioP1;P2;durP2;ratioP2
35026;SDS011;60696;51.426;6.934;2023-04-19T00:00:13;11.60;;;7.88;;
35026;SDS011;60696;51.426;6.934;2023-04-19T00:02:39;13.48;;;8.10;;
35026;SDS011;60696;51.426;6.934;2023-04-19T00:05:06;12.68;;;6.35;;
35026;SDS011;60696;51.426;6.934;2023-04-19T00:07:32;13.07;;;7.85;;
35026;SDS011;60696;51.426;6.934;2023-04-19T00:09:58;13.88;;;8.35;;
35026;SDS011;60696;51.426;6.934;2023-04-19T00:12:23;14.43;;;7.50;;
35026;SDS011;60696;51.426;6.934;2023-04-19T00:14:49;15.75;;;7.70;;
35026;SDS011;60696;51.426;6.934;2023-04-19T00:17:14;11.25;;;6.35;;
35026;SDS011;60696;51.426;6.934;2023-04-19T00:19:40;15.73;;;8.27;;
35026;SDS011;60696;51.426;6.934;2023-04-19T00:22:07;14.80;;;8.48;;
35026;SDS011;60696;51.426;6.934;2023-04-19T00:24:32;13.52;;;8.30;;
35026;SDS011;60696;51.426;6.934;2023-04-19T00:26:58;15.32;;;8.20;;
35026;SDS011;60696;51.426;6.934;2023-04-19T00:29:24;5.43;;;3.80;;
35026;SDS011;60696;51.426;6.934;2023-04-19T00:31:49;16.02;;;9.32;;
35026;SDS011;60696;51.426;6.934;2023-04-19T00:34:16;18.02;;;7.03;;
35026;SDS011;60696;51.426;6.934;2023-04-19T00:36:42;5.43;;;3.55;;
35026;SDS011;60696;51.426;6.934;2023-04-19T00:39:08;16.65;;;8.57;;
35026;SDS011;60696;51.426;6.934;2023-04-19T00:41:33;14.82;;;8.85;;
35026;SDS011;60696;51.426;6.934;2023-04-19T00:43:59;10.73;;;6.38;;
35026;SDS011;60696;51.426;6.934;2023-04-19T00:46:24;11.60;;;7.22;;
35026;SDS011;60696;51.426;6.934;2023-04-19T00:48:51;19.58;;;8.50;;
35026;SDS011;60696;51.426;6.934;2023-04-19T00:51:17;9.05;;;4.80;;
35026;SDS011;60696;51.426;6.934;2023-04-19T00:53:43;10.27;;;6.60;;
35026;SDS011;60696;51.426;6.934;2023-04-19T00:56:10;9.48;;;5.97;;
35026;SDS011;60696;51.426;6.934;2023-04-19T00:58:37;15.10;;;7.90;;
35026;SDS011;60696;51.426;6.934;2023-04-19T01:01:03;15.57;;;8.20;;
35026;SDS011;60696;51.426;6.934;2023-04-19T01:03:30;5.97;;;3.17;;
35026;SDS011;60696;51.426;6.934;2023-04-19T01:05:55;17.27;;;8.63;;
35026;SDS011;60696;51.426;6.934;2023-04-19T01:08:22;18.30;;;7.70;;
35026;SDS011;60696;51.426;6.934;2023-04-19T01:10:48;11.95;;;5.13;;
35026;SDS011;60696;51.426;6.934;2023-04-19T01:13:14;5.63;;;4.13;;
35026;SDS011;60696;51.426;6.934;2023-04-19T01:15:39;12.98;;;6.07;;
35026;SDS011;60696;51.426;6.934;2023-04-19T01:18:05;17.88;;;8.50;;
35026;SDS011;60696;51.426;6.934;2023-04-19T01:20:30;8.45;;;5.55;;
35026;SDS011;60696;51.426;6.934;2023-04-19T01:22:56;13.23;;;7.80;;
35026;SDS011;60696;51.426;6.934;2023-04-19T01:25:21;4.70;;;2.60;;
35026;SDS011;60696;51.426;6.934;2023-04-19T01:27:47;13.13;;;8.02;;
35026;SDS011;60696;51.426;6.934;2023-04-19T01:30:13;6.47;;;3.83;;
35026;SDS011;60696;51.426;6.934;2023-04-19T01:32:39;15.02;;;7.53;;
35026;SDS011;60696;51.426;6.934;2023-04-19T01:35:05;10.82;;;5.32;;
35026;SDS011;60696;51.426;6.934;2023-04-19T01:37:33;13.27;;;8.15;;
35026;SDS011;60696;51.426;6.934;2023-04-19T01:39:59;12.20;;;7.85;;
35026;SDS011;60696;51.426;6.934;2023-04-19T01:42:25;12.93;;;7.68;;
35026;SDS011;60696;51.426;6.934;2023-04-19T01:44:51;17.80;;;8.85;;
35026;SDS011;60696;51.426;6.934;2023-04-19T01:47:16;14.38;;;7.68;;
35026;SDS011;60696;51.426;6.934;2023-04-19T01:49:42;16.63;;;8.07;;
35026;SDS011;60696;51.426;6.934;2023-04-19T01:52:07;14.25;;;8.23;;
35026;SDS011;60696;51.426;6.934;2023-04-19T01:54:33;14.73;;;8.13;;
35026;SDS011;60696;51.426;6.934;2023-04-19T01:56:58;17.42;;;8.80;;
35026;SDS011;60696;51.426;6.934;2023-04-19T01:59:25;14.25;;;7.88;;
35026;SDS011;60696;51.426;6.934;2023-04-19T02:01:51;14.77;;;8.70;;
35026;SDS011;60696;51.426;6.934;2023-04-19T02:04:19;13.90;;;8.10;;
35026;SDS011;60696;51.426;6.934;2023-04-19T02:06:48;14.60;;;8.93;;
35026;SDS011;60696;51.426;6.934;2023-04-19T02:09:13;11.82;;;5.00;;
35026;SDS011;60696;51.426;6.934;2023-04-19T02:11:39;14.27;;;8.60;;
35026;SDS011;60696;51.426;6.934;2023-04-19T02:14:05;14.15;;;8.18;;
35026;SDS011;60696;51.426;6.934;2023-04-19T02:16:31;12.38;;;6.47;;
35026;SDS011;60696;51.426;6.934;2023-04-19T02:18:56;2.63;;;1.95;;
35026;SDS011;60696;51.426;6.934;2023-04-19T02:21:22;14.85;;;3.70;;
35026;SDS011;60696;51.426;6.934;2023-04-19T02:23:48;13.10;;;6.43;;
35026;SDS011;60696;51.426;6.934;2023-04-19T02:26:13;6.03;;;3.58;;
35026;SDS011;60696;51.426;6.934;2023-04-19T02:28:39;3.92;;;2.92;;
35026;SDS011;60696;51.426;6.934;2023-04-19T02:31:05;5.57;;;2.10;;
35026;SDS011;60696;51.426;6.934;2023-04-19T02:33:31;4.75;;;3.22;;
35026;SDS011;60696;51.426;6.934;2023-04-19T02:35:56;3.22;;;2.20;;
35026;SDS011;60696;51.426;6.934;2023-04-19T02:38:22;7.38;;;4.07;;
35026;SDS011;60696;51.426;6.934;2023-04-19T02:40:47;10.40;;;6.68;;
35026;SDS011;60696;51.426;6.934;2023-04-19T02:43:13;9.68;;;4.15;;
35026;SDS011;60696;51.426;6.934;2023-04-19T02:45:39;10.07;;;5.65;;
35026;SDS011;60696;51.426;6.934;2023-04-19T02:48:05;6.53;;;4.32;;
35026;SDS011;60696;51.426;6.934;2023-04-19T02:50:31;13.07;;;6.13;;
35026;SDS011;60696;51.426;6.934;2023-04-19T02:52:57;7.82;;;4.57;;
35026;SDS011;60696;51.426;6.934;2023-04-19T02:55:22;14.15;;;6.78;;
35026;SDS011;60696;51.426;6.934;2023-04-19T02:57:48;12.13;;;5.95;;
35026;SDS011;60696;51.426;6.934;2023-04-19T03:00:14;7.82;;;3.75;;
35026;SDS011;60696;51.426;6.934;2023-04-19T03:02:40;5.22;;;3.65;;
35026;SDS011;60696;51.426;6.934;2023-04-19T03:05:07;8.40;;;2.83;;
35026;SDS011;60696;51.426;6.934;2023-04-19T03:07:34;5.68;;;3.17;;
35026;SDS011;60696;51.426;6.934;2023-04-19T03:10:00;6.95;;;3.60;;
35026;SDS011;60696;51.426;6.934;2023-04-19T03:12:26;0.73;;;0.28;;
35026;SDS011;60696;51.426;6.934;2023-04-19T03:14:51;7.07;;;3.40;;
35026;SDS011;60696;51.426;6.934;2023-04-19T03:17:17;7.43;;;2.17;;
35026;SDS011;60696;51.426;6.934;2023-04-19T03:19:43;2.55;;;1.60;;
35026;SDS011;60696;51.426;6.934;2023-04-19T03:22:08;0.22;;;0.20;;
35026;SDS011;60696;51.426;6.934;2023-04-19T03:24:34;3.67;;;2.13;;
35026;SDS011;60696;51.426;6.934;2023-04-19T03:27:00;3.60;;;2.33;;
35026;SDS011;60696;51.426;6.934;2023-04-19T03:29:26;5.90;;;2.80;;
35026;SDS011;60696;51.426;6.934;2023-04-19T03:31:52;7.13;;;5.10;;
35026;SDS011;60696;51.426;6.934;2023-04-19T03:34:17;2.45;;;1.75;;
35026;SDS011;60696;51.426;6.934;2023-04-19T03:36:43;13.05;;;4.13;;
35026;SDS011;60696;51.426;6.934;2023-04-19T03:39:09;7.90;;;4.57;;
35026;SDS011;60696;51.426;6.934;2023-04-19T03:41:34;8.10;;;5.13;;
35026;SDS011;60696;51.426;6.934;2023-04-19T03:44:00;5.20;;;2.53;;
35026;SDS011;60696;51.426;6.934;2023-04-19T03:46:25;4.60;;;2.38;;
35026;SDS011;60696;51.426;6.934;2023-04-19T03:48:55;2.50;;;1.40;;
35026;SDS011;60696;51.426;6.934;2023-04-19T03:51:21;6.60;;;3.30;;
35026;SDS011;60696;51.426;6.934;2023-04-19T03:53:46;1.73;;;1.10;;
35026;SDS011;60696;51.426;6.934;2023-04-19T03:56:12;3.05;;;1.88;;
35026;SDS011;60696;51.426;6.934;2023-04-19T03:58:37;12.15;;;4.22;;
35026;SDS011;60696;51.426;6.934;2023-04-19T04:01:03;5.38;;;2.67;;
35026;SDS011;60696;51.426;6.934;2023-04-19T04:03:30;1.35;;;1.15;;
35026;SDS011;60696;51.426;6.934;2023-04-19T04:05:56;3.65;;;1.88;;
35026;SDS011;60696;51.426;6.934;2023-04-19T04:08:22;6.15;;;3.28;;
35026;SDS011;60696;51.426;6.934;2023-04-19T04:10:47;7.78;;;3.80;;
35026;SDS011;60696;51.426;6.934;2023-04-19T04:13:13;1.75;;;1.23;;
35026;SDS011;60696;51.426;6.934;2023-04-19T04:15:39;1.15;;;0.80;;
35026;SDS011;60696;51.426;6.934;2023-04-19T04:18:04;2.10;;;0.73;;
35026;SDS011;60696;51.426;6.934;2023-04-19T04:20:30;1.30;;;0.75;;
35026;SDS011;60696;51.426;6.934;2023-04-19T04:22:55;1.77;;;1.30;;
35026;SDS011;60696;51.426;6.934;2023-04-19T04:25:21;3.03;;;1.77;;
35026;SDS011;60696;51.426;6.934;2023-04-19T04:27:49;0.93;;;0.60;;
35026;SDS011;60696;51.426;6.934;2023-04-19T04:30:16;1.48;;;1.38;;
35026;SDS011;60696;51.426;6.934;2023-04-19T04:32:41;0.68;;;0.63;;
35026;SDS011;60696;51.426;6.934;2023-04-19T04:35:09;5.72;;;1.98;;
35026;SDS011;60696;51.426;6.934;2023-04-19T04:37:35;1.80;;;1.25;;
35026;SDS011;60696;51.426;6.934;2023-04-19T04:40:01;1.50;;;1.05;;
35026;SDS011;60696;51.426;6.934;2023-04-19T04:42:30;6.97;;;1.27;;
35026;SDS011;60696;51.426;6.934;2023-04-19T04:44:57;0.45;;;0.45;;
35026;SDS011;60696;51.426;6.934;2023-04-19T04:47:29;1.50;;;1.17;;
35026;SDS011;60696;51.426;6.934;2023-04-19T04:49:55;1.63;;;0.93;;
35026;SDS011;60696;51.426;6.934;2023-04-19T04:52:21;0.88;;;0.80;;
35026;SDS011;60696;51.426;6.934;2023-04-19T04:54:47;1.10;;;0.80;;
35026;SDS011;60696;51.426;6.934;2023-04-19T04:57:12;2.30;;;1.08;;
35026;SDS011;60696;51.426;6.934;2023-04-19T04:59:38;1.02;;;0.63;;
35026;SDS011;60696;51.426;6.934;2023-04-19T05:02:03;1.58;;;0.85;;
35026;SDS011;60696;51.426;6.934;2023-04-19T05:04:29;2.92;;;0.93;;
35026;SDS011;60696;51.426;6.934;2023-04-19T05:06:55;1.77;;;1.10;;
35026;SDS011;60696;51.426;6.934;2023-04-19T05:09:20;1.88;;;1.17;;
35026;SDS011;60696;51.426;6.934;2023-04-19T05:11:46;2.05;;;1.17;;
35026;SDS011;60696;51.426;6.934;2023-04-19T05:14:11;1.63;;;1.10;;
35026;SDS011;60696;51.426;6.934;2023-04-19T05:16:38;2.10;;;1.27;;
35026;SDS011;60696;51.426;6.934;2023-04-19T05:19:03;2.67;;;1.63;;
35026;SDS011;60696;51.426;6.934;2023-04-19T05:21:29;0.65;;;0.38;;
35026;SDS011;60696;51.426;6.934;2023-04-19T05:23:56;0.35;;;0.35;;
35026;SDS011;60696;51.426;6.934;2023-04-19T05:26:22;3.65;;;1.20;;
35026;SDS011;60696;51.426;6.934;2023-04-19T05:28:48;4.53;;;2.55;;
35026;SDS011;60696;51.426;6.934;2023-04-19T05:31:13;3.35;;;1.60;;
35026;SDS011;60696;51.426;6.934;2023-04-19T05:33:39;4.72;;;2.50;;
35026;SDS011;60696;51.426;6.934;2023-04-19T05:36:04;6.38;;;3.15;;
35026;SDS011;60696;51.426;6.934;2023-04-19T05:38:30;3.50;;;2.17;;
35026;SDS011;60696;51.426;6.934;2023-04-19T05:40:56;3.72;;;2.50;;
35026;SDS011;60696;51.426;6.934;2023-04-19T05:43:21;2.22;;;0.98;;
35026;SDS011;60696;51.426;6.934;2023-04-19T05:45:47;2.28;;;1.55;;
35026;SDS011;60696;51.426;6.934;2023-04-19T05:48:12;1.27;;;0.85;;
35026;SDS011;60696;51.426;6.934;2023-04-19T05:50:38;1.60;;;0.60;;
35026;SDS011;60696;51.426;6.934;2023-04-19T05:53:04;0.00;;;0.00;;
35026;SDS011;60696;51.426;6.934;2023-04-19T05:55:29;2.05;;;1.50;;
35026;SDS011;60696;51.426;6.934;2023-04-19T05:57:55;4.40;;;1.90;;
35026;SDS011;60696;51.426;6.934;2023-04-19T06:00:22;5.22;;;1.42;;
35026;SDS011;60696;51.426;6.934;2023-04-19T06:02:47;5.43;;;3.92;;
35026;SDS011;60696;51.426;6.934;2023-04-19T06:05:13;0.80;;;0.73;;
35026;SDS011;60696;51.426;6.934;2023-04-19T06:07:38;1.98;;;1.42;;
35026;SDS011;60696;51.426;6.934;2023-04-19T06:10:04;4.65;;;1.90;;
35026;SDS011;60696;51.426;6.934;2023-04-19T06:12:31;0.63;;;0.57;;
35026;SDS011;60696;51.426;6.934;2023-04-19T06:14:56;0.10;;;0.10;;
35026;SDS011;60696;51.426;6.934;2023-04-19T06:17:22;2.85;;;1.58;;
35026;SDS011;60696;51.426;6.934;2023-04-19T06:19:49;0.85;;;0.45;;
35026;SDS011;60696;51.426;6.934;2023-04-19T06:22:16;1.25;;;0.85;;
35026;SDS011;60696;51.426;6.934;2023-04-19T06:24:43;0.88;;;0.55;;
35026;SDS011;60696;51.426;6.934;2023-04-19T06:27:10;1.50;;;0.80;;
35026;SDS011;60696;51.426;6.934;2023-04-19T06:29:35;2.30;;;1.48;;
35026;SDS011;60696;51.426;6.934;2023-04-19T06:32:01;10.15;;;1.48;;
35026;SDS011;60696;51.426;6.934;2023-04-19T06:34:27;1.20;;;0.90;;
35026;SDS011;60696;51.426;6.934;2023-04-19T06:36:52;6.47;;;2.42;;
35026;SDS011;60696;51.426;6.934;2023-04-19T06:39:18;5.28;;;2.47;;
35026;SDS011;60696;51.426;6.934;2023-04-19T06:41:43;3.33;;;1.60;;
35026;SDS011;60696;51.426;6.934;2023-04-19T06:44:09;1.27;;;0.70;;
35026;SDS011;60696;51.426;6.934;2023-04-19T06:46:35;4.43;;;2.13;;
35026;SDS011;60696;51.426;6.934;2023-04-19T06:49:01;2.42;;;1.02;;
35026;SDS011;60696;51.426;6.934;2023-04-19T06:51:26;3.08;;;2.25;;
35026;SDS011;60696;51.426;6.934;2023-04-19T06:53:52;4.55;;;2.15;;
35026;SDS011;60696;51.426;6.934;2023-04-19T06:56:18;1.08;;;0.55;;
35026;SDS011;60696;51.426;6.934;2023-04-19T06:59:06;7.63;;;1.95;;
35026;SDS011;60696;51.426;6.934;2023-04-19T07:01:32;3.00;;;0.95;;
35026;SDS011;60696;51.426;6.934;2023-04-19T07:03:57;10.73;;;3.13;;
35026;SDS011;60696;51.426;6.934;2023-04-19T07:06:23;6.55;;;2.10;;
35026;SDS011;60696;51.426;6.934;2023-04-19T07:08:48;7.68;;;1.90;;
35026;SDS011;60696;51.426;6.934;2023-04-19T07:11:14;1.65;;;0.73;;
35026;SDS011;60696;51.426;6.934;2023-04-19T07:13:40;3.30;;;2.40;;
35026;SDS011;60696;51.426;6.934;2023-04-19T07:16:05;0.65;;;0.60;;
35026;SDS011;60696;51.426;6.934;2023-04-19T07:18:31;0.57;;;0.40;;
35026;SDS011;60696;51.426;6.934;2023-04-19T07:20:57;3.88;;;2.40;;
35026;SDS011;60696;51.426;6.934;2023-04-19T07:23:23;4.50;;;2.47;;
35026;SDS011;60696;51.426;6.934;2023-04-19T07:25:48;10.52;;;1.63;;
35026;SDS011;60696;51.426;6.934;2023-04-19T07:28:14;1.60;;;1.15;;
35026;SDS011;60696;51.426;6.934;2023-04-19T07:30:40;0.15;;;0.15;;
35026;SDS011;60696;51.426;6.934;2023-04-19T07:33:06;8.63;;;1.83;;
35026;SDS011;60696;51.426;6.934;2023-04-19T07:35:33;0.40;;;0.38;;
35026;SDS011;60696;51.426;6.934;2023-04-19T07:37:59;3.67;;;2.25;;
35026;SDS011;60696;51.426;6.934;2023-04-19T07:40:25;10.30;;;0.95;;
35026;SDS011;60696;51.426;6.934;2023-04-19T07:42:53;3.80;;;2.03;;
35026;SDS011;60696;51.426;6.934;2023-04-19T07:45:19;3.42;;;1.83;;
35026;SDS011;60696;51.426;6.934;2023-04-19T07:47:45;2.08;;;1.27;;
35026;SDS011;60696;51.426;6.934;2023-04-19T07:50:10;0.98;;;0.63;;
35026;SDS011;60696;51.426;6.934;2023-04-19T07:52:36;4.18;;;1.60;;
35026;SDS011;60696;51.426;6.934;2023-04-19T07:55:02;0.08;;;0.08;;
35026;SDS011;60696;51.426;6.934;2023-04-19T07:57:28;4.28;;;1.52;;
35026;SDS011;60696;51.426;6.934;2023-04-19T07:59:53;2.60;;;1.75;;
35026;SDS011;60696;51.426;6.934;2023-04-19T08:02:22;3.92;;;2.47;;
35026;SDS011;60696;51.426;6.934;2023-04-19T08:04:51;4.30;;;2.50;;
35026;SDS011;60696;51.426;6.934;2023-04-19T08:07:16;5.90;;;2.35;;
35026;SDS011;60696;51.426;6.934;2023-04-19T08:09:42;3.20;;;1.92;;
35026;SDS011;60696;51.426;6.934;2023-04-19T08:12:07;3.42;;;1.83;;
35026;SDS011;60696;51.426;6.934;2023-04-19T08:14:33;2.20;;;1.92;;
35026;SDS011;60696;51.426;6.934;2023-04-19T08:16:58;1.33;;;1.02;;
35026;SDS011;60696;51.426;6.934;2023-04-19T08:19:24;3.10;;;1.35;;
35026;SDS011;60696;51.426;6.934;2023-04-19T08:21:50;0.77;;;0.55;;
35026;SDS011;60696;51.426;6.934;2023-04-19T08:24:15;0.32;;;0.25;;
35026;SDS011;60696;51.426;6.934;2023-04-19T08:26:41;1.55;;;0.65;;
35026;SDS011;60696;51.426;6.934;2023-04-19T08:29:07;2.58;;;1.60;;
35026;SDS011;60696;51.426;6.934;2023-04-19T08:31:32;2.30;;;1.10;;
35026;SDS011;60696;51.426;6.934;2023-04-19T08:33:58;0.73;;;0.57;;
35026;SDS011;60696;51.426;6.934;2023-04-19T08:36:24;3.42;;;1.88;;
35026;SDS011;60696;51.426;6.934;2023-04-19T08:38:51;1.88;;;1.08;;
35026;SDS011;60696;51.426;6.934;2023-04-19T08:41:17;3.17;;;1.10;;
35026;SDS011;60696;51.426;6.934;2023-04-19T08:43:43;1.13;;;0.85;;
35026;SDS011;60696;51.426;6.934;2023-04-19T08:46:11;3.55;;;1.08;;
35026;SDS011;60696;51.426;6.934;2023-04-19T08:48:37;0.82;;;0.73;;
35026;SDS011;60696;51.426;6.934;2023-04-19T08:51:07;0.43;;;0.43;;
35026;SDS011;60696;51.426;6.934;2023-04-19T08:53:33;1.58;;;1.02;;
35026;SDS011;60696;51.426;6.934;2023-04-19T08:56:00;4.05;;;1.92;;
35026;SDS011;60696;51.426;6.934;2023-04-19T08:58:25;2.50;;;1.33;;
35026;SDS011;60696;51.426;6.934;2023-04-19T09:00:54;9.38;;;1.90;;
35026;SDS011;60696;51.426;6.934;2023-04-19T09:03:20;2.90;;;1.75;;
35026;SDS011;60696;51.426;6.934;2023-04-19T09:05:46;1.70;;;0.43;;
35026;SDS011;60696;51.426;6.934;2023-04-19T09:08:21;1.50;;;0.82;;
35026;SDS011;60696;51.426;6.934;2023-04-19T09:10:55;0.88;;;0.47;;
35026;SDS011;60696;51.426;6.934;2023-04-19T09:13:23;3.25;;;1.52;;
35026;SDS011;60696;51.426;6.934;2023-04-19T09:15:49;0.17;;;0.17;;
35026;SDS011;60696;51.426;6.934;2023-04-19T09:18:15;2.90;;;1.52;;
35026;SDS011;60696;51.426;6.934;2023-04-19T09:20:41;1.65;;;0.90;;
35026;SDS011;60696;51.426;6.934;2023-04-19T09:23:12;0.82;;;0.57;;
35026;SDS011;60696;51.426;6.934;2023-04-19T09:28:28;3.42;;;0.82;;
35026;SDS011;60696;51.426;6.934;2023-04-19T09:30:55;4.53;;;0.70;;
35026;SDS011;60696;51.426;6.934;2023-04-19T09:35:57;0.28;;;0.22;;
35026;SDS011;60696;51.426;6.934;2023-04-19T09:38:23;2.25;;;1.00;;
35026;SDS011;60696;51.426;6.934;2023-04-19T09:40:49;0.35;;;0.25;;
35026;SDS011;60696;51.426;6.934;2023-04-19T09:43:24;9.98;;;1.38;;
35026;SDS011;60696;51.426;6.934;2023-04-19T09:45:50;2.95;;;1.08;;
35026;SDS011;60696;51.426;6.934;2023-04-19T09:48:16;1.65;;;0.88;;
35026;SDS011;60696;51.426;6.934;2023-04-19T09:50:51;0.50;;;0.43;;
35026;SDS011;60696;51.426;6.934;2023-04-19T09:53:24;0.28;;;0.28;;
35026;SDS011;60696;51.426;6.934;2023-04-19T09:55:52;1.92;;;0.60;;
35026;SDS011;60696;51.426;6.934;2023-04-19T09:58:18;1.50;;;0.55;;
35026;SDS011;60696;51.426;6.934;2023-04-19T10:00:45;3.30;;;0.43;;
35026;SDS011;60696;51.426;6.934;2023-04-19T10:03:13;1.55;;;0.80;;
35026;SDS011;60696;51.426;6.934;2023-04-19T10:05:40;2.00;;;0.90;;
35026;SDS011;60696;51.426;6.934;2023-04-19T10:08:07;0.85;;;0.52;;
35026;SDS011;60696;51.426;6.934;2023-04-19T10:10:33;1.17;;;0.70;;
35026;SDS011;60696;51.426;6.934;2023-04-19T10:13:02;0.30;;;0.20;;
35026;SDS011;60696;51.426;6.934;2023-04-19T10:15:29;1.38;;;0.60;;
35026;SDS011;60696;51.426;6.934;2023-04-19T10:17:56;1.13;;;0.60;;
35026;SDS011;60696;51.426;6.934;2023-04-19T10:20:23;4.57;;;0.95;;
35026;SDS011;60696;51.426;6.934;2023-04-19T10:23:00;4.07;;;0.88;;
35026;SDS011;60696;51.426;6.934;2023-04-19T10:25:28;2.78;;;0.65;;
35026;SDS011;60696;51.426;6.934;2023-04-19T10:27:55;1.20;;;0.75;;
35026;SDS011;60696;51.426;6.934;2023-04-19T10:30:21;3.45;;;1.38;;
35026;SDS011;60696;51.426;6.934;2023-04-19T10:32:52;1.13;;;0.55;;
35026;SDS011;60696;51.426;6.934;2023-04-19T10:35:27;0.88;;;0.70;;
35026;SDS011;60696;51.426;6.934;2023-04-19T10:38:13;4.60;;;1.48;;
35026;SDS011;60696;51.426;6.934;2023-04-19T10:48:51;1.70;;;1.25;;
35026;SDS011;60696;51.426;6.934;2023-04-19T10:54:01;0.85;;;0.43;;
35026;SDS011;60696;51.426;6.934;2023-04-19T11:04:07;1.30;;;0.88;;
35026;SDS011;60696;51.426;6.934;2023-04-19T11:06:33;0.82;;;0.47;;
35026;SDS011;60696;51.426;6.934;2023-04-19T11:09:00;2.83;;;1.17;;
35026;SDS011;60696;51.426;6.934;2023-04-19T11:11:31;0.35;;;0.30;;
35026;SDS011;60696;51.426;6.934;2023-04-19T11:13:58;0.05;;;0.05;;
35026;SDS011;60696;51.426;6.934;2023-04-19T11:16:26;2.95;;;0.90;;
35026;SDS011;60696;51.426;6.934;2023-04-19T11:18:52;1.40;;;0.63;;
35026;SDS011;60696;51.426;6.934;2023-04-19T11:21:18;1.85;;;1.15;;
35026;SDS011;60696;51.426;6.934;2023-04-19T11:23:44;1.75;;;0.63;;
35026;SDS011;60696;51.426;6.934;2023-04-19T11:26:11;3.10;;;1.15;;
35026;SDS011;60696;51.426;6.934;2023-04-19T11:28:37;1.20;;;0.80;;
35026;SDS011;60696;51.426;6.934;2023-04-19T11:31:04;8.35;;;2.22;;
35026;SDS011;60696;51.426;6.934;2023-04-19T11:33:33;1.80;;;1.33;;
35026;SDS011;60696;51.426;6.934;2023-04-19T11:35:59;2.75;;;1.52;;
35026;SDS011;60696;51.426;6.934;2023-04-19T11:38:29;5.28;;;1.88;;
35026;SDS011;60696;51.426;6.934;2023-04-19T11:41:01;2.15;;;0.90;;
35026;SDS011;60696;51.426;6.934;2023-04-19T11:43:34;2.85;;;0.77;;
35026;SDS011;60696;51.426;6.934;2023-04-19T11:46:07;1.45;;;0.82;;
35026;SDS011;60696;51.426;6.934;2023-04-19T11:48:34;0.40;;;0.40;;
35026;SDS011;60696;51.426;6.934;2023-04-19T11:51:00;0.82;;;0.57;;
35026;SDS011;60696;51.426;6.934;2023-04-19T11:53:26;0.10;;;0.10;;
35026;SDS011;60696;51.426;6.934;2023-04-19T11:55:55;11.13;;;0.98;;
35026;SDS011;60696;51.426;6.934;2023-04-19T12:00:47;11.05;;;1.15;;
35026;SDS011;60696;51.426;6.934;2023-04-19T12:03:13;1.17;;;0.32;;
35026;SDS011;60696;51.426;6.934;2023-04-19T12:05:50;1.73;;;0.85;;
35026;SDS011;60696;51.426;6.934;2023-04-19T12:08:16;1.55;;;0.60;;
35026;SDS011;60696;51.426;6.934;2023-04-19T12:11:03;4.38;;;0.75;;
35026;SDS011;60696;51.426;6.934;2023-04-19T12:13:28;2.33;;;0.93;;
35026;SDS011;60696;51.426;6.934;2023-04-19T12:15:55;1.35;;;0.70;;
35026;SDS011;60696;51.426;6.934;2023-04-19T12:18:21;0.10;;;0.10;;
35026;SDS011;60696;51.426;6.934;2023-04-19T12:20:49;0.70;;;0.57;;
35026;SDS011;60696;51.426;6.934;2023-04-19T12:23:16;3.13;;;1.13;;
35026;SDS011;60696;51.426;6.934;2023-04-19T12:25:43;1.15;;;0.60;;
35026;SDS011;60696;51.426;6.934;2023-04-19T12:28:10;3.67;;;1.58;;
35026;SDS011;60696;51.426;6.934;2023-04-19T12:30:37;4.45;;;2.17;;
35026;SDS011;60696;51.426;6.934;2023-04-19T12:33:03;1.20;;;0.82;;
35026;SDS011;60696;51.426;6.934;2023-04-19T12:35:31;2.22;;;0.80;;
35026;SDS011;60696;51.426;6.934;2023-04-19T12:37:58;1.13;;;0.80;;
35026;SDS011;60696;51.426;6.934;2023-04-19T12:40:24;2.13;;;1.42;;
35026;SDS011;60696;51.426;6.934;2023-04-19T12:42:51;1.75;;;0.65;;
35026;SDS011;60696;51.426;6.934;2023-04-19T12:45:18;0.38;;;0.38;;
35026;SDS011;60696;51.426;6.934;2023-04-19T12:47:44;0.00;;;0.00;;
35026;SDS011;60696;51.426;6.934;2023-04-19T12:50:14;0.45;;;0.38;;
35026;SDS011;60696;51.426;6.934;2023-04-19T12:52:40;7.00;;;1.77;;
35026;SDS011;60696;51.426;6.934;2023-04-19T12:55:07;2.47;;;1.65;;
35026;SDS011;60696;51.426;6.934;2023-04-19T12:57:33;4.95;;;1.77;;
35026;SDS011;60696;51.426;6.934;2023-04-19T12:59:59;0.40;;;0.40;;
35026;SDS011;60696;51.426;6.934;2023-04-19T13:02:25;2.60;;;1.23;;
35026;SDS011;60696;51.426;6.934;2023-04-19T13:04:54;0.10;;;0.10;;
35026;SDS011;60696;51.426;6.934;2023-04-19T13:07:19;4.40;;;1.92;;
35026;SDS011;60696;51.426;6.934;2023-04-19T13:09:45;1.70;;;1.25;;
35026;SDS011;60696;51.426;6.934;2023-04-19T13:12:11;6.03;;;1.58;;
35026;SDS011;60696;51.426;6.934;2023-04-19T13:14:36;4.15;;;0.88;;
35026;SDS011;60696;51.426;6.934;2023-04-19T13:17:02;6.25;;;3.22;;
35026;SDS011;60696;51.426;6.934;2023-04-19T13:19:28;4.07;;;1.35;;
35026;SDS011;60696;51.426;6.934;2023-04-19T13:21:53;1.50;;;1.10;;
35026;SDS011;60696;51.426;6.934;2023-04-19T13:24:19;0.57;;;0.57;;
35026;SDS011;60696;51.426;6.934;2023-04-19T13:26:47;3.42;;;0.75;;
35026;SDS011;60696;51.426;6.934;2023-04-19T13:29:15;0.45;;;0.40;;
35026;SDS011;60696;51.426;6.934;2023-04-19T13:31:41;1.55;;;1.02;;
35026;SDS011;60696;51.426;6.934;2023-04-19T13:34:07;1.08;;;0.80;;
35026;SDS011;60696;51.426;6.934;2023-04-19T13:36:33;1.65;;;1.33;;
35026;SDS011;60696;51.426;6.934;2023-04-19T13:38:58;1.65;;;0.85;;
35026;SDS011;60696;51.426;6.934;2023-04-19T13:41:24;0.85;;;0.60;;
35026;SDS011;60696;51.426;6.934;2023-04-19T13:43:50;1.45;;;0.80;;
35026;SDS011;60696;51.426;6.934;2023-04-19T13:46:16;4.30;;;0.80;;
35026;SDS011;60696;51.426;6.934;2023-04-19T13:48:42;1.15;;;0.75;;
35026;SDS011;60696;51.426;6.934;2023-04-19T13:51:07;1.85;;;0.95;;
35026;SDS011;60696;51.426;6.934;2023-04-19T13:53:33;2.63;;;0.50;;
35026;SDS011;60696;51.426;6.934;2023-04-19T13:55:59;1.48;;;1.17;;
35026;SDS011;60696;51.426;6.934;2023-04-19T13:58:25;0.68;;;0.32;;
35026;SDS011;60696;51.426;6.934;2023-04-19T14:00:51;1.48;;;0.82;;
35026;SDS011;60696;51.426;6.934;2023-04-19T14:03:17;0.20;;;0.20;;
35026;SDS011;60696;51.426;6.934;2023-04-19T14:05:43;7.68;;;1.35;;
35026;SDS011;60696;51.426;6.934;2023-04-19T14:08:08;1.23;;;0.80;;
35026;SDS011;60696;51.426;6.934;2023-04-19T14:10:37;0.57;;;0.30;;
35026;SDS011;60696;51.426;6.934;2023-04-19T14:13:04;1.35;;;1.00;;
35026;SDS011;60696;51.426;6.934;2023-04-19T14:15:30;1.17;;;0.90;;
35026;SDS011;60696;51.426;6.934;2023-04-19T14:17:56;0.38;;;0.35;;
35026;SDS011;60696;51.426;6.934;2023-04-19T14:20:22;3.20;;;1.05;;
35026;SDS011;60696;51.426;6.934;2023-04-19T14:22:48;2.50;;;1.65;;
35026;SDS011;60696;51.426;6.934;2023-04-19T14:25:13;1.15;;;0.80;;
35026;SDS011;60696;51.426;6.934;2023-04-19T14:27:39;1.25;;;0.85;;
35026;SDS011;60696;51.426;6.934;2023-04-19T14:30:05;1.00;;;0.60;;
35026;SDS011;60696;51.426;6.934;2023-04-19T14:32:32;1.95;;;0.52;;
35026;SDS011;60696;51.426;6.934;2023-04-19T14:34:58;0.30;;;0.30;;
35026;SDS011;60696;51.426;6.934;2023-04-19T14:37:24;0.63;;;0.40;;
35026;SDS011;60696;51.426;6.934;2023-04-19T14:39:50;1.88;;;1.10;;
35026;SDS011;60696;51.426;6.934;2023-04-19T14:42:16;1.00;;;0.45;;
35026;SDS011;60696;51.426;6.934;2023-04-19T14:44:42;0.93;;;0.38;;
35026;SDS011;60696;51.426;6.934;2023-04-19T14:47:07;2.30;;;1.08;;
35026;SDS011;60696;51.426;6.934;2023-04-19T14:49:33;0.95;;;0.68;;
35026;SDS011;60696;51.426;6.934;2023-04-19T14:51:59;0.75;;;0.57;;
35026;SDS011;60696;51.426;6.934;2023-04-19T14:54:24;2.83;;;1.20;;
35026;SDS011;60696;51.426;6.934;2023-04-19T14:56:50;0.30;;;0.22;;
35026;SDS011;60696;51.426;6.934;2023-04-19T14:59:16;0.82;;;0.80;;
35026;SDS011;60696;51.426;6.934;2023-04-19T15:01:42;5.95;;;0.47;;
35026;SDS011;60696;51.426;6.934;2023-04-19T15:04:07;3.17;;;1.30;;
35026;SDS011;60696;51.426;6.934;2023-04-19T15:06:33;2.85;;;1.20;;